Flight Track Log - Related Links

Times and Time Zones

All times are in EST time to prevent confusion due to time zone crossing. See the UAL1116 flight status page for this flight to view local times or setup timezone preferences in your user account.


Time Position Orientation Groundspeed Altitude Reporting Facility
EST Latitude Longitude Course Direction KTS MPH feet Rate Location/Type
Sun 12:09:46 AM 37.6500 -122.3500 67° East 170 196 1,100  Level Northern Cal TRACON
Sun 12:10:46 AM 37.6833 -122.3000 50° Northeast 213 245 4,000 2,895 Climbing Northern Cal TRACON
Sun 12:11:40 AM 37.7167 -122.2333 58° Northeast 255 293 6,600 3,200 Climbing Northern Cal TRACON
Sun 12:12:46 AM 37.7833 -122.1500 45° Northeast 276 318 10,400 2,325 Climbing Northern Cal TRACON
Sun 12:14:20 AM 37.8264 -121.9847 72° East 355 409 12,800 1,974 Climbing Oakland Center
Sun 12:15:00 AM 37.7715 -121.6300 67° East  Level Estimated
Sun 12:15:21 AM 37.8597 -121.8531 72° East 392 451 15,500  Level Oakland Center
Sun 12:16:21 AM 37.8936 -121.7197 76° East 405 466 18,100 2,074 Climbing Oakland Center
Sun 12:17:00 AM 37.9076 -121.6057 67° East  Level Estimated
Sun 12:19:24 AM 38.0067 -121.2725 72° East 462 532 23,900  Level Oakland Center
Sun 12:20:25 AM 38.0461 -121.1167 72° East 467 537 25,400 1,377 Climbing Oakland Center
Sun 12:21:26 AM 38.0847 -120.9542 73° East 482 555 26,700 1,835 Climbing Oakland Center
Sun 12:22:26 AM 38.1206 -120.7533 77° East 490 564 29,100 2,182 Climbing Oakland Center
Sun 12:23:27 AM 38.1506 -120.5917 77° East 478 550 31,100 1,820 Climbing Oakland Center
Sun 12:24:00 AM 38.1700 -120.5669 76° East  Level FlightAware Approximate
Sun 12:24:28 AM 38.1789 -120.4306 77° East 471 542 32,800  Level Oakland Center
Sun 12:25:29 AM 38.2072 -120.2719 77° East 464 534 34,300 1,377 Climbing Oakland Center
Sun 12:26:30 AM 38.2353 -120.1142 77° East 460 529 35,600 1,339 Climbing Oakland Center
Sun 12:27:30 AM 38.2631 -119.9575 77° East 457 526 37,000 694 Climbing Oakland Center
Sun 12:28:31 AM 38.2881 -119.8036 78° East 449 517 37,000  Level Oakland Center
Sun 12:29:32 AM 38.3161 -119.6486 77° East 448 516 37,000  Level Oakland Center
Sun 12:30:33 AM 38.3428 -119.4914 78° East 453 521 37,000  Level Oakland Center
Sun 12:31:34 AM 38.3708 -119.3239 78° East 456 525 37,000  Level Oakland Center
Sun 12:32:34 AM 38.3967 -119.1656 78° East 458 527 37,000  Level Oakland Center
Sun 12:33:35 AM 38.4239 -119.0064 78° East 460 529 37,000  Level Oakland Center
Sun 12:34:36 AM 38.4503 -118.8464 78° East 463 533 37,000  Level Oakland Center
Sun 12:35:37 AM 38.4753 -118.6864 79° East 463 533 37,000  Level Oakland Center
Sun 12:36:38 AM 38.5022 -118.5250 78° East 466 536 37,000  Level Oakland Center
Sun 12:37:38 AM 38.5283 -118.3636 78° East 468 539 37,000  Level Oakland Center
Sun 12:38:39 AM 38.5531 -118.2039 79° East 463 533 37,000  Level Oakland Center
Sun 12:39:40 AM 38.5819 -118.0203 79° East 465 535 37,000  Level Oakland Center
Sun 12:40:41 AM 38.6064 -117.8594 79° East 462 532 37,000  Level Oakland Center
Sun 12:41:41 AM 38.6314 -117.6975 79° East 461 531 37,000  Level Oakland Center
Sun 12:42:42 AM 38.6556 -117.5356 79° East 461 531 37,000  Level Oakland Center
Sun 12:43:43 AM 38.6800 -117.3747 79° East 460 529 37,000  Level Oakland Center
Sun 12:44:44 AM 38.7042 -117.2114 79° East 463 533 37,000  Level Oakland Center
Sun 12:45:21 AM 38.7186 -117.1139 79° East 462 532 37,000  Level Salt Lake Center
Sun 12:46:22 AM 38.7417 -116.9497 80° East 464 534 37,000  Level Salt Lake Center
Sun 12:47:23 AM 38.7658 -116.7850 79° East 467 537 37,000  Level Salt Lake Center
Sun 12:48:24 AM 38.7903 -116.6208 79° East 467 537 37,000  Level Salt Lake Center
Sun 12:49:26 AM 38.8136 -116.4561 80° East 468 539 37,000  Level Salt Lake Center
Sun 12:50:27 AM 38.8369 -116.2928 80° East 465 535 37,000  Level Salt Lake Center
Sun 12:51:28 AM 38.8583 -116.1300 80° East 464 534 37,000  Level Salt Lake Center
Sun 12:52:29 AM 38.8814 -115.9661 80° East 465 535 37,000  Level Salt Lake Center
Sun 12:53:30 AM 38.9075 -115.7700 80° East 465 535 37,000  Level Salt Lake Center
Sun 12:54:31 AM 38.9303 -115.6078 80° East 464 534 37,000  Level Salt Lake Center
Sun 12:55:32 AM 38.9522 -115.4450 80° East 463 533 37,000  Level Salt Lake Center
Sun 12:56:33 AM 38.9733 -115.2786 81° East 467 537 37,000  Level Salt Lake Center
Sun 12:57:34 AM 38.9961 -115.1128 80° East 472 543 37,000  Level Salt Lake Center
Sun 12:58:35 AM 39.0161 -114.9489 81° East 467 537 37,000  Level Salt Lake Center
Sun 12:59:36 AM 39.0378 -114.7833 80° East 470 541 37,000  Level Salt Lake Center
Sun 01:00:37 AM 39.0603 -114.6153 80° East 476 548 37,000  Level Salt Lake Center
Sun 01:01:38 AM 39.0914 -114.4492 76° East 477 549 37,000  Level Salt Lake Center
Sun 01:02:39 AM 39.1206 -114.2836 77° East 475 547 37,000  Level Salt Lake Center
Sun 01:03:40 AM 39.1500 -114.1189 77° East 473 544 37,000  Level Salt Lake Center
Sun 01:04:41 AM 39.1794 -113.9522 77° East 475 547 37,000  Level Salt Lake Center
Sun 01:05:42 AM 39.2092 -113.7858 77° East 477 549 37,000  Level Salt Lake Center
Sun 01:06:43 AM 39.2436 -113.5822 78° East 483 556 37,000 -341 Level Salt Lake Center
Sun 01:07:45 AM 39.2725 -113.4128 78° East 484 557 36,300 -780 Descending Salt Lake Center
Sun 01:08:46 AM 39.3011 -113.2428 78° East 484 557 35,400 -934 Descending Salt Lake Center
Sun 01:09:47 AM 39.3300 -113.0736 77° East 483 556 34,400 -984 Descending Salt Lake Center
Sun 01:10:48 AM 39.3569 -112.9061 78° East 478 550 33,400 -984 Descending Salt Lake Center
Sun 01:11:49 AM 39.3836 -112.7478 78° East 459 528 32,400 -984 Descending Salt Lake Center
Sun 01:12:50 AM 39.4114 -112.5800 78° East 447 514 31,400 -689 Descending Salt Lake Center
Sun 01:13:51 AM 39.4378 -112.4222 78° East 449 517 31,000 -197 Descending Salt Lake Center
Sun 01:14:52 AM 39.4628 -112.2594 79° East 460 529 31,000  Level Salt Lake Center
Sun 01:15:53 AM 39.4892 -112.0969 78° East 464 534 31,000  Level Salt Lake Center
Sun 01:16:54 AM 39.5147 -111.9322 79° East 468 539 31,000  Level Salt Lake Center
Sun 01:17:55 AM 39.5406 -111.7672 78° East 469 540 31,000  Level Salt Lake Center
Sun 01:18:56 AM 39.5653 -111.6025 79° East 470 541 31,000  Level Salt Lake Center
Sun 01:19:57 AM 39.5908 -111.4361 79° East 472 543 31,000  Level Salt Lake Center
Sun 01:20:58 AM 39.6192 -111.2422 79° East 474 545 31,000  Level Salt Lake Center
Sun 01:21:59 AM 39.6447 -111.0822 78° East 473 544 31,000  Level Salt Lake Center
Sun 01:23:00 AM 39.6689 -110.9228 79° East 471 542 31,000  Level Salt Lake Center
Sun 01:24:01 AM 39.6953 -110.7319 80° East 479 551 31,000  Level Salt Lake Center
Sun 01:25:02 AM 39.7200 -110.5672 79° East 484 557 31,000  Level Salt Lake Center
Sun 01:26:03 AM 39.7433 -110.4036 79° East 482 555 31,000  Level Salt Lake Center
Sun 01:27:04 AM 39.7697 -110.2144 80° East 478 550 31,000  Level Salt Lake Center
Sun 01:28:05 AM 39.7800 -110.0436 85° East 494 568 31,000  Level Salt Lake Center
Sun 01:29:06 AM 39.7839 -109.8697 88° East 502 578 31,000  Level Salt Lake Center
Sun 01:30:07 AM 39.7903 -109.6667 88° East 505 581 31,000  Level Salt Lake Center
Sun 01:30:37 AM 39.7928 -109.5783 88° East 504 580 31,000  Level Denver Center
Sun 01:31:38 AM 39.7969 -109.4025 88° East 506 582 31,000  Level Denver Center
Sun 01:32:39 AM 39.8019 -109.1986 88° East 504 580 31,000  Level Denver Center
Sun 01:33:40 AM 39.8047 -109.0233 89° East 504 580 31,000  Level Denver Center
Sun 01:34:40 AM 39.8072 -108.8475 89° East 501 577 31,000  Level Denver Center
Sun 01:35:41 AM 39.8108 -108.6708 88° East 502 578 31,000  Level Denver Center
Sun 01:36:42 AM 39.8153 -108.4628 88° East 510 587 31,000  Level Denver Center
Sun 01:37:42 AM 39.8175 -108.2839 89° East 514 592 31,000  Level Denver Center
Sun 01:38:43 AM 39.8206 -108.1075 89° East 511 588 31,000  Level Denver Center
Sun 01:39:44 AM 39.8219 -107.9317 89° East 507 583 31,000  Level Denver Center
Sun 01:40:44 AM 39.8247 -107.7244 89° East 512 589 31,000  Level Denver Center
Sun 01:41:45 AM 39.8261 -107.5500 89° East 507 583 31,000  Level Denver Center
Sun 01:42:46 AM 39.8275 -107.3731 89° East 509 586 31,000  Level Denver Center
Sun 01:43:46 AM 39.8289 -107.1797 89° East 508 585 31,000  Level Denver Center
Sun 01:44:47 AM 39.8289 -106.9944 90° East 508 585 31,000  Level Denver Center
Sun 01:45:48 AM 39.8297 -106.8092 90° East 508 585 31,000 -97 Level Denver Center
Sun 01:46:51 AM 39.8300 -106.6247 90° East 505 581 30,800 -585 Descending Denver Center
Sun 01:47:51 AM 39.8308 -106.4528 90° East 502 578 29,800 -1,091 Descending Denver Center
Sun 01:48:52 AM 39.8303 -106.2697 90° East 506 582 28,600 -1,770 Descending Denver Center
Sun 01:49:53 AM 39.8300 -106.0569 90° East 492 566 26,200 -2,529 Descending Denver Center
Sun 01:50:53 AM 39.8292 -105.8883 90° East 471 542 23,500 -2,579 Descending Denver Center
Sun 01:51:54 AM 39.8250 -105.7342 92° East 461 531 21,000 -2,231 Descending Denver Center
Sun 01:52:54 AM 39.8075 -105.5839 99° East 426 490 19,000 -1,636 Descending Denver Center
Sun 01:53:55 AM 39.7889 -105.4372 99° East 413 475 17,700 -1,041 Descending Denver Center
Sun 01:54:55 AM 39.7753 -105.2939 97° East 376 433 16,900 -1,438 Descending Denver Center
Sun 01:55:56 AM 39.8264 -105.1839 59° Northeast 359 413 14,800 -2,083 Descending Denver Center
Sun 01:56:56 AM 39.8822 -105.0819 54° Northeast 347 399 12,700 -2,083 Descending Denver Center
Sun 01:57:57 AM 39.9372 -104.9819 54° Northeast 340 391 10,600 -1,339 Descending Denver Center
Sun 01:58:57 AM 39.9892 -104.8919 53° Northeast 309 356 10,000 -595 Descending Denver Center
Sun 01:59:58 AM 40.0392 -104.8219 47° Northeast 270 311 9,400 -595 Descending Denver Center
Sun 02:00:58 AM 40.0994 -104.8022 14° North 229 264 8,800 -545 Descending Denver Center
Sun 02:01:59 AM 40.0828 -104.7292 107° East 228 262 8,300 -397 Descending Denver Center
Sun 02:02:59 AM 40.0319 -104.6900 149° Southeast 212 244 8,000 -645 Descending Denver Center
Sun 02:04:00 AM 39.9789 -104.6856 176° South 196 226 7,000 -893 Descending Denver Center
Sun 02:05:00 AM 39.9347 -104.6864 181° South 163 188 6,200 -793 Descending Denver Center
Sun 02:06:01 AM 39.8928 -104.6867 180° South 151 174 5,400 -787 Descending Denver Center
Sun 02:08:00 AM 39.8617 -104.6732 168° South  Level Estimated
Sun 02:15:00 AM 39.8617 -104.6732 168° South  Level Estimated
Sun 02:16:00 AM 39.8617 -104.6732 168° South  Level Estimated

Login

Don't have an account? Register now (free) for customized features, flight alerts, and more!